Time;durP1;ratioP1;P1;durP2;ratioP2;P2;SDS_P1;SDS_P2;PMS_P1;PMS_P2;Temp;Humidity;BMP_temperature;BMP_pressure;BME280_temperature;BME280_humidity;BME280_pressure;Samples;Min_cycle;Max_cycle;Signal;HPM_P1;HPM_P2
2022/12/14 00:00:32;;;;;;;;;;;0.50;99.90;;;;;;6246475;23;19904;-66
2022/12/14 00:02:58;;;;;;;;;;;0.50;99.90;;;;;;6247187;23;19974;-66
2022/12/14 00:05:23;;;;;;;;;;;0.50;99.90;;;;;;6246420;23;19900;-67
2022/12/14 00:07:49;;;;;;;;;;;0.60;99.90;;;;;;6246470;23;19900;-66
2022/12/14 00:10:14;;;;;;;;;;;0.50;99.90;;;;;;6246769;23;19899;-66
2022/12/14 00:12:40;;;;;;;;;;;0.50;99.90;;;;;;6246452;23;19900;-65
2022/12/14 00:15:05;;;;;;;;;;;0.60;99.90;;;;;;6246357;23;20241;-65
2022/12/14 00:17:31;;;;;;;;;;;0.50;99.90;;;;;;6247132;23;19906;-64
2022/12/14 00:19:56;;;;;;;;;;;0.50;99.90;;;;;;6246294;23;20340;-64
2022/12/14 00:22:22;;;;;;;;;;;0.50;99.90;;;;;;6246408;23;19909;-66
2022/12/14 00:24:47;;;;;;;;;;;0.60;99.90;;;;;;6246611;22;20306;-66
2022/12/14 00:27:13;;;;;;;;;;;0.60;99.90;;;;;;6246360;23;19899;-65
2022/12/14 00:29:38;;;;;;;;;;;0.60;99.90;;;;;;6246133;23;19990;-66
2022/12/14 00:32:04;;;;;;;;;;;0.60;99.90;;;;;;6247532;23;19899;-66
2022/12/14 00:34:30;;;;;;;;;;;0.60;99.90;;;;;;6248298;23;19899;-65
2022/12/14 00:36:56;;;;;;;;;;;0.60;99.90;;;;;;6248626;23;19949;-66
2022/12/14 00:39:22;;;;;;;;;;;0.60;99.90;;;;;;6248161;23;19907;-65
2022/12/14 00:41:47;;;;;;;;;;;0.60;99.90;;;;;;6248207;23;19973;-65
2022/12/14 00:44:13;;;;;;;;;;;0.70;99.90;;;;;;6248242;23;19904;-65
2022/12/14 00:46:38;;;;;;;;;;;0.70;99.90;;;;;;6248814;23;20352;-65
2022/12/14 00:49:04;;;;;;;;;;;0.70;99.90;;;;;;6248185;23;19934;-66
2022/12/14 00:51:29;;;;;;;;;;;0.80;99.90;;;;;;6248489;23;19906;-65
2022/12/14 00:53:55;;;;;;;;;;;0.80;99.90;;;;;;6248090;23;20238;-65
2022/12/14 00:56:20;;;;;;;;;;;0.80;99.90;;;;;;6248787;23;20299;-65
2022/12/14 00:58:49;;;;;;;;;;;0.70;99.90;;;;;;6247980;23;19911;-66
2022/12/14 01:01:15;;;;;;;;;;;0.80;99.90;;;;;;6248016;23;20295;-66
2022/12/14 01:03:40;;;;;;;;;;;0.80;99.90;;;;;;6248021;23;19900;-65
2022/12/14 01:06:11;;;;;;;;;;;0.80;99.90;;;;;;6248021;23;19907;-65
2022/12/14 01:08:37;;;;;;;;;;;0.80;99.90;;;;;;6248382;23;20306;-65
2022/12/14 01:11:04;;;;;;;;;;;0.80;99.90;;;;;;6247939;23;19907;-65
2022/12/14 01:13:29;;;;;;;;;;;0.80;99.90;;;;;;6248638;23;19900;-65
2022/12/14 01:15:55;;;;;;;;;;;0.80;99.90;;;;;;6248219;23;19906;-65
2022/12/14 01:18:20;;;;;;;;;;;0.80;99.90;;;;;;6247792;23;19900;-65
2022/12/14 01:20:46;;;;;;;;;;;0.80;99.90;;;;;;6248557;23;19899;-66
2022/12/14 01:23:11;;;;;;;;;;;0.90;99.90;;;;;;6247862;23;19903;-66
2022/12/14 01:25:37;;;;;;;;;;;0.90;99.90;;;;;;6248085;22;20237;-66
2022/12/14 01:28:02;;;;;;;;;;;0.90;99.90;;;;;;6247811;23;19900;-66
2022/12/14 01:30:28;;;;;;;;;;;0.90;99.90;;;;;;6247364;23;19919;-65
2022/12/14 01:32:53;;;;;;;;;;;0.90;99.90;;;;;;6247788;23;20313;-65
2022/12/14 01:35:19;;;;;;;;;;;0.90;99.90;;;;;;6248082;23;19900;-66
2022/12/14 01:37:44;;;;;;;;;;;0.80;99.90;;;;;;6248418;23;19900;-66
2022/12/14 01:40:10;;;;;;;;;;;0.90;99.90;;;;;;6247936;23;19904;-65
2022/12/14 01:42:36;;;;;;;;;;;0.80;99.90;;;;;;6248219;23;19899;-66
2022/12/14 01:45:02;;;;;;;;;;;0.80;99.90;;;;;;6247890;23;19994;-65
2022/12/14 01:47:27;;;;;;;;;;;0.80;99.90;;;;;;6248020;23;19931;-65
2022/12/14 01:49:57;;;;;;;;;;;0.80;99.90;;;;;;6247601;23;20321;-66
2022/12/14 01:52:29;;;;;;;;;;;0.80;99.90;;;;;;6247549;23;19903;-65
2022/12/14 01:55:01;;;;;;;;;;;0.80;99.90;;;;;;6247496;23;19927;-66
2022/12/14 01:57:31;;;;;;;;;;;0.80;99.90;;;;;;6247515;23;20377;-65
2022/12/14 01:59:57;;;;;;;;;;;0.80;99.90;;;;;;6247343;23;20349;-65
2022/12/14 02:02:23;;;;;;;;;;;0.70;99.90;;;;;;6247446;23;19907;-65
2022/12/14 02:04:58;;;;;;;;;;;0.70;99.90;;;;;;6247787;23;19915;-66
2022/12/14 02:07:25;;;;;;;;;;;0.70;99.90;;;;;;6247427;23;19900;-65
2022/12/14 02:09:51;;;;;;;;;;;0.70;99.90;;;;;;6247405;23;20295;-65
2022/12/14 02:12:26;;;;;;;;;;;0.80;99.90;;;;;;6247389;23;19899;-66
2022/12/14 02:14:54;;;;;;;;;;;0.80;99.90;;;;;;6248029;23;19927;-66
2022/12/14 02:17:19;;;;;;;;;;;0.80;99.90;;;;;;6247323;23;19899;-65
2022/12/14 02:19:48;;;;;;;;;;;0.80;99.90;;;;;;6247528;23;20337;-65
2022/12/14 02:22:23;;;;;;;;;;;0.80;99.90;;;;;;6247653;23;19900;-66
2022/12/14 02:25:03;;;;;;;;;;;0.80;99.90;;;;;;6247865;22;19899;-65
2022/12/14 02:27:47;;;;;;;;;;;0.80;99.90;;;;;;6247189;23;19954;-65
2022/12/14 02:30:13;;;;;;;;;;;0.80;99.90;;;;;;6246925;23;20286;-66
2022/12/14 02:32:59;;;;;;;;;;;0.80;99.90;;;;;;6247165;23;19900;-65
2022/12/14 02:35:34;;;;;;;;;;;0.90;99.90;;;;;;6247855;23;20211;-66
2022/12/14 02:38:19;;;;;;;;;;;0.90;99.90;;;;;;6247110;23;19946;-66
2022/12/14 02:41:11;;;;;;;;;;;0.90;99.90;;;;;;6245999;23;19903;-65
2022/12/14 02:43:37;;;;;;;;;;;0.90;99.90;;;;;;6189718;23;19907;-66
2022/12/14 02:46:02;;;;;;;;;;;1.00;99.90;;;;;;6247710;23;20238;-66
2022/12/14 02:48:48;;;;;;;;;;;1.00;99.90;;;;;;6246965;23;19900;-66
2022/12/14 02:51:32;;;;;;;;;;;1.10;99.90;;;;;;6247345;23;19907;-65
2022/12/14 02:54:00;;;;;;;;;;;1.10;99.90;;;;;;6247037;23;19900;-65
2022/12/14 02:56:36;;;;;;;;;;;1.10;99.90;;;;;;6247602;23;19899;-65
2022/12/14 02:59:03;;;;;;;;;;;1.00;99.90;;;;;;6246802;23;19907;-66
2022/12/14 03:01:29;;;;;;;;;;;1.00;99.90;;;;;;6220047;23;19945;-65
2022/12/14 03:03:54;;;;;;;;;;;0.90;99.90;;;;;;6247246;23;19904;-65
2022/12/14 03:06:27;;;;;;;;;;;1.00;99.90;;;;;;6246833;23;19900;-66
2022/12/14 03:08:55;;;;;;;;;;;1.00;99.90;;;;;;6247212;23;19904;-64
2022/12/14 03:11:23;;;;;;;;;;;1.00;99.90;;;;;;6247154;23;19899;-65
2022/12/14 03:13:52;;;;;;;;;;;1.10;99.90;;;;;;6246760;23;20215;-65
2022/12/14 03:16:23;;;;;;;;;;;1.00;99.90;;;;;;6246786;23;19958;-66
2022/12/14 03:19:09;;;;;;;;;;;1.00;99.90;;;;;;6247032;23;19903;-65
2022/12/14 03:21:40;;;;;;;;;;;1.00;99.90;;;;;;6245899;23;19907;-65
2022/12/14 03:24:13;;;;;;;;;;;1.00;99.90;;;;;;6246645;22;19913;-66
2022/12/14 03:26:54;;;;;;;;;;;1.10;99.90;;;;;;6247097;23;19931;-65
2022/12/14 03:29:21;;;;;;;;;;;1.00;99.90;;;;;;6246452;23;19934;-66
2022/12/14 03:31:58;;;;;;;;;;;1.00;99.90;;;;;;6247371;23;19953;-65
2022/12/14 03:34:27;;;;;;;;;;;1.00;99.90;;;;;;6246644;23;19903;-66
2022/12/14 03:37:00;;;;;;;;;;;1.00;99.90;;;;;;6247289;23;19919;-66
2022/12/14 03:39:28;;;;;;;;;;;1.00;99.90;;;;;;6246533;23;19904;-66
2022/12/14 03:41:56;;;;;;;;;;;0.90;99.90;;;;;;6246515;23;19935;-66
2022/12/14 03:44:27;;;;;;;;;;;1.00;99.90;;;;;;6246519;23;19903;-65
2022/12/14 03:47:05;;;;;;;;;;;1.00;99.90;;;;;;6246569;23;19899;-64
2022/12/14 03:49:49;;;;;;;;;;;1.00;99.90;;;;;;6246524;23;19899;-65
2022/12/14 03:52:23;;;;;;;;;;;0.90;99.90;;;;;;6219321;23;20289;-65
2022/12/14 03:55:14;;;;;;;;;;;1.00;99.90;;;;;;6246880;23;19906;-65
2022/12/14 03:57:46;;;;;;;;;;;1.00;99.90;;;;;;6188490;23;19921;-65
2022/12/14 04:00:14;;;;;;;;;;;1.00;99.90;;;;;;6246766;23;19907;-66
2022/12/14 04:02:54;;;;;;;;;;;1.00;99.90;;;;;;6246449;23;19907;-66
2022/12/14 04:05:35;;;;;;;;;;;0.90;99.90;;;;;;6247148;23;19903;-66
2022/12/14 04:08:03;;;;;;;;;;;1.00;99.90;;;;;;6248256;23;19900;-65
2022/12/14 04:18:58;;;;;;;;;;;1.10;99.90;;;;;;6248778;23;19911;-66
2022/12/14 04:21:42;;;;;;;;;;;1.00;99.90;;;;;;6248491;23;19913;-65
2022/12/14 04:27:01;;;;;;;;;;;1.10;99.90;;;;;;6248146;23;19946;-65
2022/12/14 04:32:30;;;;;;;;;;;1.10;99.90;;;;;;6248065;23;19910;-66
2022/12/14 04:35:03;;;;;;;;;;;1.10;99.90;;;;;;6248632;23;20310;-66
2022/12/14 04:37:29;;;;;;;;;;;1.10;99.90;;;;;;6248270;23;20023;-64
2022/12/14 04:40:01;;;;;;;;;;;1.10;99.90;;;;;;6248205;23;19903;-65
2022/12/14 04:42:30;;;;;;;;;;;1.10;99.90;;;;;;6248207;23;19907;-66
2022/12/14 04:45:00;;;;;;;;;;;1.10;99.90;;;;;;6248241;23;19954;-66
2022/12/14 04:47:29;;;;;;;;;;;1.10;99.90;;;;;;6248506;23;20234;-66
2022/12/14 04:50:21;;;;;;;;;;;1.20;99.90;;;;;;6248493;23;19979;-65
2022/12/14 04:52:51;;;;;;;;;;;1.10;99.90;;;;;;6240706;23;19907;-65
2022/12/14 04:55:27;;;;;;;;;;;1.10;99.90;;;;;;6248155;23;19899;-65
2022/12/14 04:57:59;;;;;;;;;;;1.00;99.90;;;;;;6221984;23;19904;-65
2022/12/14 05:00:26;;;;;;;;;;;1.00;99.90;;;;;;6248340;23;19918;-65
2022/12/14 05:02:54;;;;;;;;;;;1.00;99.90;;;;;;6248781;23;19978;-66
2022/12/14 05:05:25;;;;;;;;;;;1.00;99.90;;;;;;6247991;23;19899;-63
2022/12/14 05:07:54;;;;;;;;;;;1.00;99.90;;;;;;6247985;23;19923;-65
2022/12/14 05:10:39;;;;;;;;;;;1.00;99.90;;;;;;6248669;23;19938;-65
2022/12/14 05:13:24;;;;;;;;;;;1.00;99.90;;;;;;6221662;23;19903;-66
2022/12/14 05:15:53;;;;;;;;;;;1.00;99.90;;;;;;6247908;23;19923;-65
2022/12/14 05:18:19;;;;;;;;;;;1.00;99.90;;;;;;6247874;23;20325;-66
2022/12/14 05:20:45;;;;;;;;;;;1.10;99.90;;;;;;6248283;23;19899;-65
2022/12/14 05:23:11;;;;;;;;;;;1.10;99.90;;;;;;6247873;23;19983;-65
2022/12/14 05:25:37;;;;;;;;;;;1.10;99.90;;;;;;6247714;22;19900;-65
2022/12/14 05:28:02;;;;;;;;;;;1.10;99.90;;;;;;6248500;23;19950;-66
2022/12/14 05:30:28;;;;;;;;;;;1.10;99.90;;;;;;6247330;23;19912;-66
2022/12/14 05:32:53;;;;;;;;;;;1.10;99.90;;;;;;6247797;23;19907;-65
2022/12/14 05:35:19;;;;;;;;;;;1.10;99.90;;;;;;6248082;23;20318;-66
2022/12/14 05:37:45;;;;;;;;;;;1.10;99.90;;;;;;6220893;23;20361;-66
2022/12/14 05:40:11;;;;;;;;;;;1.00;99.90;;;;;;6247614;23;19935;-65
2022/12/14 05:42:36;;;;;;;;;;;1.00;99.90;;;;;;6247706;23;19899;-65
2022/12/14 05:45:02;;;;;;;;;;;1.00;99.90;;;;;;6248355;23;20290;-65
2022/12/14 05:47:27;;;;;;;;;;;1.00;99.90;;;;;;6247599;23;20330;-65
2022/12/14 05:49:53;;;;;;;;;;;1.10;99.90;;;;;;6247622;23;20306;-65
2022/12/14 05:52:18;;;;;;;;;;;1.10;99.90;;;;;;6247585;23;19907;-66
2022/12/14 05:54:44;;;;;;;;;;;1.10;99.90;;;;;;6248293;23;19907;-65
2022/12/14 05:57:10;;;;;;;;;;;1.10;99.90;;;;;;6247585;23;19899;-64
2022/12/14 05:59:35;;;;;;;;;;;1.00;99.90;;;;;;6247469;23;20277;-65
2022/12/14 06:02:01;;;;;;;;;;;1.00;99.90;;;;;;6247858;23;19934;-65
2022/12/14 06:04:26;;;;;;;;;;;1.10;99.90;;;;;;6247477;23;19907;-65
2022/12/14 06:06:52;;;;;;;;;;;1.00;99.90;;;;;;6247447;23;19903;-65
2022/12/14 06:09:18;;;;;;;;;;;1.00;99.90;;;;;;6248442;23;19900;-65
2022/12/14 06:11:44;;;;;;;;;;;1.00;99.90;;;;;;6247363;23;19900;-64
2022/12/14 06:14:10;;;;;;;;;;;1.00;99.90;;;;;;6248085;23;19899;-66
2022/12/14 06:16:38;;;;;;;;;;;1.00;99.90;;;;;;6247698;23;20276;-66
2022/12/14 06:19:04;;;;;;;;;;;1.00;99.90;;;;;;6247944;23;19939;-65
2022/12/14 06:21:30;;;;;;;;;;;1.00;99.90;;;;;;6247287;23;19900;-66
2022/12/14 06:23:56;;;;;;;;;;;1.00;99.90;;;;;;6247506;22;19911;-66
2022/12/14 06:26:22;;;;;;;;;;;1.00;99.90;;;;;;6247913;23;20393;-66
2022/12/14 06:28:47;;;;;;;;;;;1.00;99.90;;;;;;6246629;23;19911;-65
2022/12/14 06:31:20;;;;;;;;;;;1.00;99.90;;;;;;6247748;23;19930;-65
2022/12/14 06:33:45;;;;;;;;;;;1.00;99.90;;;;;;6247472;23;19978;-64
2022/12/14 06:36:22;;;;;;;;;;;1.00;99.90;;;;;;6248068;23;19900;-65
2022/12/14 06:38:49;;;;;;;;;;;1.00;99.90;;;;;;6247077;23;19904;-65
2022/12/14 06:41:14;;;;;;;;;;;1.00;99.90;;;;;;6247424;23;19900;-66
2022/12/14 06:43:40;;;;;;;;;;;1.10;99.90;;;;;;6247114;23;19907;-66
2022/12/14 06:46:09;;;;;;;;;;;1.10;99.90;;;;;;6247030;23;19967;-65
2022/12/14 06:48:35;;;;;;;;;;;1.10;99.90;;;;;;6247383;23;20210;-65
2022/12/14 06:51:03;;;;;;;;;;;1.10;99.90;;;;;;6246978;23;19945;-66
2022/12/14 06:53:32;;;;;;;;;;;1.10;99.90;;;;;;6247026;23;19900;-65
2022/12/14 06:56:07;;;;;;;;;;;1.10;99.90;;;;;;6246929;23;19900;-66
2022/12/14 06:58:33;;;;;;;;;;;1.10;99.90;;;;;;6246836;23;20237;-64
2022/12/14 07:01:06;;;;;;;;;;;1.10;99.90;;;;;;6247279;23;19903;-66
2022/12/14 07:03:32;;;;;;;;;;;1.10;99.90;;;;;;6247232;23;20387;-65
2022/12/14 07:05:58;;;;;;;;;;;1.10;99.90;;;;;;6246896;23;19900;-66
2022/12/14 07:08:24;;;;;;;;;;;1.10;99.90;;;;;;6246893;23;20324;-65
2022/12/14 07:10:50;;;;;;;;;;;1.10;99.90;;;;;;6247216;23;19900;-65
2022/12/14 07:13:16;;;;;;;;;;;1.10;99.90;;;;;;6247171;23;20273;-65
2022/12/14 07:15:41;;;;;;;;;;;1.10;99.90;;;;;;6246796;23;19899;-65
2022/12/14 07:18:07;;;;;;;;;;;1.10;99.90;;;;;;6246780;23;19934;-65
2022/12/14 07:20:32;;;;;;;;;;;1.20;99.90;;;;;;6246683;23;19907;-66
2022/12/14 07:22:58;;;;;;;;;;;1.10;99.90;;;;;;6247041;23;20203;-66
2022/12/14 07:25:23;;;;;;;;;;;1.10;99.90;;;;;;6246577;22;19900;-65
2022/12/14 07:27:50;;;;;;;;;;;1.10;99.90;;;;;;6246716;23;19900;-65
2022/12/14 07:30:15;;;;;;;;;;;1.10;99.90;;;;;;6246255;23;19982;-66
2022/12/14 07:32:41;;;;;;;;;;;1.10;99.90;;;;;;6247372;23;19931;-66
2022/12/14 07:35:06;;;;;;;;;;;1.10;99.90;;;;;;6247002;23;19899;-66
2022/12/14 07:37:32;;;;;;;;;;;1.10;99.90;;;;;;6246622;23;19907;-64
2022/12/14 07:39:58;;;;;;;;;;;1.10;99.90;;;;;;6246771;23;19903;-65
2022/12/14 07:42:23;;;;;;;;;;;1.20;99.90;;;;;;6246560;23;20344;-67
2022/12/14 07:44:49;;;;;;;;;;;1.20;99.90;;;;;;6246944;23;19931;-66
2022/12/14 07:47:14;;;;;;;;;;;1.20;99.90;;;;;;6246544;23;19899;-67
2022/12/14 07:49:40;;;;;;;;;;;1.20;99.90;;;;;;6246862;23;19899;-67
2022/12/14 07:52:05;;;;;;;;;;;1.20;99.90;;;;;;6246489;23;19903;-66
2022/12/14 07:54:31;;;;;;;;;;;1.20;99.90;;;;;;6246532;23;19950;-67
2022/12/14 07:56:56;;;;;;;;;;;1.20;99.90;;;;;;6247193;23;19900;-66
2022/12/14 07:59:23;;;;;;;;;;;1.20;99.90;;;;;;6246745;23;19965;-67
2022/12/14 08:01:50;;;;;;;;;;;1.20;99.90;;;;;;6246082;23;19974;-66
2022/12/14 08:04:17;;;;;;;;;;;1.20;99.90;;;;;;6246535;23;19907;-65
2022/12/14 08:06:43;;;;;;;;;;;1.30;99.90;;;;;;6246852;23;19903;-66
2022/12/14 08:09:09;;;;;;;;;;;1.30;99.90;;;;;;6246473;23;19899;-67
2022/12/14 08:11:34;;;;;;;;;;;1.30;99.90;;;;;;6246768;23;20306;-65
2022/12/14 08:14:01;;;;;;;;;;;1.30;99.90;;;;;;6246414;23;19900;-65
2022/12/14 08:16:27;;;;;;;;;;;1.20;99.90;;;;;;6246438;23;19900;-66
2022/12/14 08:18:53;;;;;;;;;;;1.30;99.90;;;;;;6246312;23;19908;-66
2022/12/14 08:21:20;;;;;;;;;;;1.30;99.90;;;;;;6246357;23;19900;-66
2022/12/14 08:23:47;;;;;;;;;;;1.30;99.90;;;;;;6246331;22;19900;-67
2022/12/14 08:26:12;;;;;;;;;;;1.30;99.90;;;;;;6245944;23;19907;-65
2022/12/14 08:28:38;;;;;;;;;;;1.30;99.90;;;;;;6246744;23;19911;-66
2022/12/14 08:31:04;;;;;;;;;;;1.30;99.90;;;;;;6246750;23;20337;-66
2022/12/14 08:33:31;;;;;;;;;;;1.30;99.90;;;;;;6219472;23;19907;-66
2022/12/14 08:36:02;;;;;;;;;;;1.40;99.90;;;;;;6246326;23;19900;-65
2022/12/14 08:38:29;;;;;;;;;;;1.40;99.90;;;;;;6246614;23;19899;-71
2022/12/14 08:40:54;;;;;;;;;;;1.40;99.90;;;;;;6219417;23;20382;-67
2022/12/14 08:43:20;;;;;;;;;;;1.40;99.90;;;;;;6246160;23;19935;-68
2022/12/14 08:45:45;;;;;;;;;;;1.40;99.90;;;;;;6246204;23;19899;-68
2022/12/14 08:48:11;;;;;;;;;;;1.40;99.90;;;;;;6246600;23;20226;-68
2022/12/14 08:50:37;;;;;;;;;;;1.40;99.90;;;;;;6246248;23;19904;-69
2022/12/14 08:53:03;;;;;;;;;;;1.40;99.90;;;;;;6247838;23;19904;-68
2022/12/14 08:55:28;;;;;;;;;;;1.40;99.90;;;;;;6248146;23;19899;-68
2022/12/14 08:57:54;;;;;;;;;;;1.50;99.90;;;;;;6248464;23;19906;-68
2022/12/14 09:00:19;;;;;;;;;;;1.50;99.90;;;;;;6247970;23;19910;-68
2022/12/14 09:02:47;;;;;;;;;;;1.50;99.90;;;;;;6248395;23;19899;-69
2022/12/14 09:05:13;;;;;;;;;;;1.50;99.90;;;;;;6247999;23;19903;-66
2022/12/14 09:07:38;;;;;;;;;;;1.50;99.90;;;;;;6248720;23;19907;-66
2022/12/14 09:10:04;;;;;;;;;;;1.50;99.90;;;;;;6248343;23;19927;-66
2022/12/14 09:12:30;;;;;;;;;;;1.60;99.90;;;;;;6248351;23;19907;-66
2022/12/14 09:14:55;;;;;;;;;;;1.60;99.90;;;;;;6247931;23;19923;-66
2022/12/14 09:17:21;;;;;;;;;;;1.60;99.90;;;;;;6247952;23;20234;-65
2022/12/14 09:19:46;;;;;;;;;;;1.60;99.90;;;;;;6248165;23;20222;-66
2022/12/14 09:22:12;;;;;;;;;;;1.50;99.90;;;;;;6247855;23;19903;-65
2022/12/14 09:24:38;;;;;;;;;;;1.60;99.90;;;;;;6248063;22;19899;-67
2022/12/14 09:27:03;;;;;;;;;;;1.60;99.90;;;;;;6248172;23;20364;-65
2022/12/14 09:29:29;;;;;;;;;;;1.60;99.90;;;;;;6247703;23;19911;-66
2022/12/14 09:31:54;;;;;;;;;;;1.50;99.90;;;;;;6248140;23;19900;-66
2022/12/14 09:34:20;;;;;;;;;;;1.60;99.90;;;;;;6247778;23;20242;-67
2022/12/14 09:36:46;;;;;;;;;;;1.60;99.90;;;;;;6248135;23;19899;-67
2022/12/14 09:39:15;;;;;;;;;;;1.60;99.90;;;;;;6247693;23;20326;-67
2022/12/14 09:41:43;;;;;;;;;;;1.70;99.90;;;;;;6247711;23;19899;-67
2022/12/14 09:44:13;;;;;;;;;;;1.60;99.90;;;;;;6248012;23;19899;-67
2022/12/14 09:46:45;;;;;;;;;;;1.60;99.90;;;;;;6247620;23;20234;-67
2022/12/14 09:49:22;;;;;;;;;;;1.60;99.90;;;;;;6247661;23;20210;-67
2022/12/14 09:51:47;;;;;;;;;;;1.60;99.90;;;;;;6247635;23;19899;-66
2022/12/14 09:54:14;;;;;;;;;;;1.70;99.90;;;;;;6247575;23;19906;-68
2022/12/14 09:56:41;;;;;;;;;;;1.70;99.90;;;;;;6247912;23;19974;-66
2022/12/14 09:59:10;;;;;;;;;;;1.70;99.90;;;;;;6247367;23;19957;-67
2022/12/14 10:01:57;;;;;;;;;;;1.70;99.90;;;;;;6247862;23;20302;-67
2022/12/14 10:04:32;;;;;;;;;;;1.70;99.90;;;;;;6247460;23;19934;-67
2022/12/14 10:07:17;;;;;;;;;;;1.80;99.90;;;;;;6247774;23;19900;-68
2022/12/14 10:09:57;;;;;;;;;;;1.90;99.90;;;;;;6247423;23;19903;-66
2022/12/14 10:12:45;;;;;;;;;;;1.90;99.90;;;;;;6248071;23;19903;-67
2022/12/14 10:15:17;;;;;;;;;;;2.00;99.90;;;;;;6247403;23;19903;-67
2022/12/14 10:17:46;;;;;;;;;;;2.10;99.90;;;;;;6247313;23;19903;-68
2022/12/14 10:20:23;;;;;;;;;;;2.10;99.90;;;;;;6247266;23;20302;-67
2022/12/14 10:22:53;;;;;;;;;;;2.10;99.90;;;;;;6248017;23;19930;-67
2022/12/14 10:25:22;;;;;;;;;;;2.10;99.90;;;;;;6247173;22;19900;-66
2022/12/14 10:27:52;;;;;;;;;;;2.00;99.90;;;;;;6247548;23;19978;-67
2022/12/14 10:30:20;;;;;;;;;;;2.00;99.90;;;;;;6246715;23;19917;-68
2022/12/14 10:32:48;;;;;;;;;;;2.00;99.90;;;;;;6247217;23;19927;-67
2022/12/14 10:35:15;;;;;;;;;;;2.00;99.90;;;;;;6247150;23;19935;-67
2022/12/14 10:37:46;;;;;;;;;;;2.20;99.90;;;;;;6247441;23;19899;-67
2022/12/14 10:40:21;;;;;;;;;;;2.10;99.90;;;;;;6246985;23;19903;-67
2022/12/14 10:42:56;;;;;;;;;;;2.20;99.90;;;;;;6247107;23;19962;-68
2022/12/14 10:45:40;;;;;;;;;;;2.30;99.90;;;;;;6247132;23;20253;-68
2022/12/14 10:48:06;;;;;;;;;;;2.30;99.90;;;;;;6247070;23;19903;-67
2022/12/14 10:50:38;;;;;;;;;;;2.40;99.90;;;;;;6247042;23;20388;-67
2022/12/14 10:53:04;;;;;;;;;;;2.50;99.90;;;;;;6247066;23;20344;-67
2022/12/14 10:55:35;;;;;;;;;;;2.50;99.90;;;;;;6247677;23;19899;-67
2022/12/14 10:58:00;;;;;;;;;;;2.50;99.90;;;;;;6246939;23;19922;-66
2022/12/14 11:00:26;;;;;;;;;;;2.50;99.90;;;;;;6246861;23;20306;-66
2022/12/14 11:02:53;;;;;;;;;;;2.60;99.90;;;;;;6247590;23;19945;-67
2022/12/14 11:05:31;;;;;;;;;;;2.60;99.90;;;;;;6247262;23;19907;-67
2022/12/14 11:07:57;;;;;;;;;;;2.70;99.90;;;;;;6246834;23;19899;-67
2022/12/14 11:10:25;;;;;;;;;;;2.80;99.90;;;;;;6247072;23;19915;-68
2022/12/14 11:13:04;;;;;;;;;;;2.80;99.90;;;;;;6246881;23;19983;-67
2022/12/14 11:15:40;;;;;;;;;;;2.80;99.90;;;;;;6246908;23;20278;-68
2022/12/14 11:18:15;;;;;;;;;;;2.60;99.90;;;;;;6219881;23;20277;-67
2022/12/14 11:20:49;;;;;;;;;;;2.60;99.90;;;;;;6247012;23;19904;-67
2022/12/14 11:23:38;;;;;;;;;;;2.70;99.90;;;;;;6246710;23;19899;-68
2022/12/14 11:26:08;;;;;;;;;;;2.80;99.90;;;;;;6226752;23;19995;-67
2022/12/14 11:28:47;;;;;;;;;;;3.00;99.90;;;;;;6246436;23;19923;-67
2022/12/14 11:31:19;;;;;;;;;;;3.00;99.90;;;;;;6247322;23;19926;-67
2022/12/14 11:33:45;;;;;;;;;;;3.00;99.90;;;;;;6246663;23;19904;-68
2022/12/14 11:36:22;;;;;;;;;;;3.10;99.90;;;;;;6246641;23;20337;-68
2022/12/14 11:38:54;;;;;;;;;;;2.90;99.90;;;;;;6246838;23;19903;-67
2022/12/14 11:41:20;;;;;;;;;;;3.00;99.90;;;;;;6246592;23;19982;-68
2022/12/14 11:43:59;;;;;;;;;;;3.00;99.90;;;;;;6246607;23;19900;-67
2022/12/14 11:46:39;;;;;;;;;;;3.10;99.90;;;;;;6246948;23;19899;-67
2022/12/14 11:49:17;;;;;;;;;;;3.00;99.90;;;;;;6246597;23;19907;-67
2022/12/14 11:51:54;;;;;;;;;;;2.90;99.90;;;;;;6246992;23;19899;-67
2022/12/14 11:54:20;;;;;;;;;;;2.90;99.90;;;;;;6246480;23;20352;-67
2022/12/14 11:56:48;;;;;;;;;;;2.90;99.90;;;;;;6246515;23;19900;-67
2022/12/14 11:59:15;;;;;;;;;;;2.90;99.90;;;;;;6246771;23;19910;-67
2022/12/14 12:01:41;;;;;;;;;;;3.00;99.90;;;;;;6246490;23;19903;-67
2022/12/14 12:04:10;;;;;;;;;;;3.00;99.90;;;;;;6247124;23;20332;-67
2022/12/14 12:06:36;;;;;;;;;;;3.00;99.90;;;;;;6246429;23;20401;-67
2022/12/14 12:09:05;;;;;;;;;;;3.00;99.90;;;;;;6246728;23;19939;-68
2022/12/14 12:11:32;;;;;;;;;;;3.00;99.90;;;;;;6246418;23;19974;-67
2022/12/14 12:14:03;;;;;;;;;;;3.00;99.90;;;;;;6246788;23;20270;-67
2022/12/14 12:16:29;;;;;;;;;;;2.90;99.90;;;;;;6246690;23;19900;-67
2022/12/14 12:18:58;;;;;;;;;;;3.00;99.90;;;;;;6247035;23;19986;-66
2022/12/14 12:21:24;;;;;;;;;;;3.00;99.90;;;;;;6246342;23;19900;-67
2022/12/14 12:23:52;;;;;;;;;;;3.00;99.90;;;;;;6246304;22;19957;-68
2022/12/14 12:26:21;;;;;;;;;;;3.00;99.90;;;;;;6246353;23;20315;-67
2022/12/14 12:29:01;;;;;;;;;;;3.00;99.90;;;;;;6247906;23;20407;-68
2022/12/14 12:31:30;;;;;;;;;;;3.00;99.90;;;;;;6248417;23;20233;-66
2022/12/14 12:34:08;;;;;;;;;;;3.00;99.90;;;;;;6249068;23;19899;-68
2022/12/14 12:36:35;;;;;;;;;;;3.00;99.90;;;;;;6248443;23;19900;-67
2022/12/14 12:39:05;;;;;;;;;;;3.00;99.90;;;;;;6248304;23;20236;-68
2022/12/14 12:41:47;;;;;;;;;;;2.90;99.90;;;;;;6248316;23;20326;-68
2022/12/14 12:44:25;;;;;;;;;;;3.00;99.90;;;;;;6248269;23;19926;-68
2022/12/14 12:47:03;;;;;;;;;;;3.00;99.90;;;;;;6248586;23;20321;-67
2022/12/14 12:49:29;;;;;;;;;;;3.00;99.90;;;;;;6248206;23;19934;-67
2022/12/14 12:52:02;;;;;;;;;;;3.10;99.90;;;;;;6248200;23;19899;-67
2022/12/14 12:54:52;;;;;;;;;;;3.10;99.90;;;;;;6248206;23;19914;-68
2022/12/14 12:57:18;;;;;;;;;;;3.00;99.90;;;;;;6248581;23;20333;-67
2022/12/14 12:59:49;;;;;;;;;;;3.00;99.90;;;;;;6248030;23;19982;-67
2022/12/14 13:02:33;;;;;;;;;;;3.10;99.90;;;;;;6248548;23;19900;-67
2022/12/14 13:05:06;;;;;;;;;;;3.00;99.90;;;;;;6248065;23;19899;-67
2022/12/14 13:07:55;;;;;;;;;;;3.00;99.90;;;;;;6248004;23;19953;-67
2022/12/14 13:10:22;;;;;;;;;;;3.00;99.90;;;;;;6227891;23;20340;-67
2022/12/14 13:12:50;;;;;;;;;;;3.00;99.90;;;;;;6247949;23;20326;-67
2022/12/14 13:15:22;;;;;;;;;;;3.00;99.90;;;;;;6248271;23;19934;-68
2022/12/14 13:17:49;;;;;;;;;;;3.00;99.90;;;;;;6221241;23;20014;-67
2022/12/14 13:20:18;;;;;;;;;;;3.00;99.90;;;;;;6247820;23;19903;-67
2022/12/14 13:22:44;;;;;;;;;;;3.00;99.90;;;;;;6248283;23;19931;-67
2022/12/14 13:25:22;;;;;;;;;;;3.10;99.90;;;;;;6247775;22;19900;-66
2022/12/14 13:27:56;;;;;;;;;;;3.10;99.90;;;;;;6247848;23;19899;-67
2022/12/14 13:30:27;;;;;;;;;;;3.10;99.90;;;;;;6247459;23;20348;-68
2022/12/14 13:33:15;;;;;;;;;;;3.10;99.90;;;;;;6248151;23;19978;-68
2022/12/14 13:36:08;;;;;;;;;;;3.00;99.90;;;;;;6248223;23;19951;-67
2022/12/14 13:38:43;;;;;;;;;;;3.00;99.90;;;;;;6248156;23;19900;-68
2022/12/14 13:41:32;;;;;;;;;;;3.00;99.90;;;;;;6248054;23;19900;-67
2022/12/14 13:43:57;;;;;;;;;;;2.90;99.90;;;;;;6248425;23;19899;-68
2022/12/14 13:46:24;;;;;;;;;;;2.90;99.90;;;;;;6247653;23;20248;-66
2022/12/14 13:48:52;;;;;;;;;;;2.80;99.90;;;;;;6248337;23;19900;-66
2022/12/14 13:51:44;;;;;;;;;;;2.90;99.90;;;;;;6247623;23;19982;-67
2022/12/14 13:54:18;;;;;;;;;;;2.80;99.90;;;;;;6240298;23;20288;-67
2022/12/14 13:56:44;;;;;;;;;;;3.00;99.90;;;;;;6248305;23;19908;-68
2022/12/14 13:59:40;;;;;;;;;;;3.00;99.90;;;;;;6247781;23;19904;-67
2022/12/14 14:02:25;;;;;;;;;;;3.00;99.90;;;;;;6215119;23;20314;-67
2022/12/14 14:05:11;;;;;;;;;;;3.00;99.90;;;;;;6248227;23;19907;-68
2022/12/14 14:07:48;;;;;;;;;;;2.90;99.90;;;;;;6247114;23;20038;-67
2022/12/14 14:10:26;;;;;;;;;;;3.00;99.90;;;;;;6248194;23;19911;-68
2022/12/14 14:12:52;;;;;;;;;;;3.00;99.90;;;;;;6247452;23;19906;-67
2022/12/14 14:15:21;;;;;;;;;;;2.90;99.90;;;;;;6247368;23;19978;-67
2022/12/14 14:17:48;;;;;;;;;;;2.90;99.90;;;;;;6247360;23;20269;-67
2022/12/14 14:20:28;;;;;;;;;;;2.80;99.90;;;;;;6247884;23;19914;-67
2022/12/14 14:23:14;;;;;;;;;;;2.80;99.90;;;;;;6247271;23;20296;-67
2022/12/14 14:25:50;;;;;;;;;;;2.70;99.90;;;;;;6221415;23;20309;-67
2022/12/14 14:28:17;;;;;;;;;;;2.60;99.90;;;;;;6220267;23;19899;-68
2022/12/14 14:30:50;;;;;;;;;;;2.50;99.90;;;;;;6247263;23;20384;-67
2022/12/14 14:33:34;;;;;;;;;;;2.50;99.90;;;;;;6247237;23;19900;-68
2022/12/14 14:36:06;;;;;;;;;;;2.50;99.90;;;;;;6247196;23;19961;-66
2022/12/14 14:38:34;;;;;;;;;;;2.50;99.90;;;;;;6247029;23;20356;-67
2022/12/14 14:41:07;;;;;;;;;;;2.50;99.90;;;;;;6247831;23;19983;-68
2022/12/14 14:43:35;;;;;;;;;;;2.60;99.90;;;;;;6247113;23;19910;-67
2022/12/14 14:46:02;;;;;;;;;;;2.50;99.90;;;;;;6246994;23;20304;-67
2022/12/14 14:48:30;;;;;;;;;;;2.50;99.90;;;;;;6247055;23;20351;-67
2022/12/14 14:51:11;;;;;;;;;;;2.60;99.90;;;;;;6246964;23;20021;-67
2022/12/14 14:53:37;;;;;;;;;;;2.60;99.90;;;;;;6246988;23;19899;-68
2022/12/14 14:56:03;;;;;;;;;;;2.60;99.90;;;;;;6247705;23;20210;-67
2022/12/14 14:58:30;;;;;;;;;;;2.60;99.90;;;;;;6246954;23;19900;-67
2022/12/14 15:01:05;;;;;;;;;;;2.60;99.90;;;;;;6247217;23;20318;-67